sensor_id;sensor_type;location;lat;lon;timestamp;P1;durP1;ratioP1;P2;durP2;ratioP2
21825;SDS011;11075;47.944;11.776;2023-02-01T00:00:30;4.37;;;2.53;;
21825;SDS011;11075;47.944;11.776;2023-02-01T00:02:57;4.80;;;2.67;;
21825;SDS011;11075;47.944;11.776;2023-02-01T00:05:23;4.57;;;3.13;;
21825;SDS011;11075;47.944;11.776;2023-02-01T00:07:50;4.67;;;2.80;;
21825;SDS011;11075;47.944;11.776;2023-02-01T00:10:17;2.30;;;1.83;;
21825;SDS011;11075;47.944;11.776;2023-02-01T00:12:45;3.63;;;1.97;;
21825;SDS011;11075;47.944;11.776;2023-02-01T00:15:12;4.77;;;2.33;;
21825;SDS011;11075;47.944;11.776;2023-02-01T00:17:39;4.50;;;2.33;;
21825;SDS011;11075;47.944;11.776;2023-02-01T00:20:05;4.10;;;1.90;;
21825;SDS011;11075;47.944;11.776;2023-02-01T00:22:33;2.93;;;2.33;;
21825;SDS011;11075;47.944;11.776;2023-02-01T00:25:00;2.63;;;1.47;;
21825;SDS011;11075;47.944;11.776;2023-02-01T00:27:26;8.70;;;1.97;;
21825;SDS011;11075;47.944;11.776;2023-02-01T00:29:56;7.40;;;2.03;;
21825;SDS011;11075;47.944;11.776;2023-02-01T00:32:23;5.43;;;2.07;;
21825;SDS011;11075;47.944;11.776;2023-02-01T00:34:50;4.93;;;1.93;;
21825;SDS011;11075;47.944;11.776;2023-02-01T00:37:17;2.60;;;1.63;;
21825;SDS011;11075;47.944;11.776;2023-02-01T00:39:44;3.43;;;2.03;;
21825;SDS011;11075;47.944;11.776;2023-02-01T00:42:11;3.30;;;1.90;;
21825;SDS011;11075;47.944;11.776;2023-02-01T00:44:38;1.90;;;1.33;;
21825;SDS011;11075;47.944;11.776;2023-02-01T00:47:06;4.80;;;2.03;;
21825;SDS011;11075;47.944;11.776;2023-02-01T00:49:33;1.90;;;1.40;;
21825;SDS011;11075;47.944;11.776;2023-02-01T00:52:00;4.77;;;2.13;;
21825;SDS011;11075;47.944;11.776;2023-02-01T00:54:26;5.93;;;1.83;;
21825;SDS011;11075;47.944;11.776;2023-02-01T00:56:53;3.67;;;1.90;;
21825;SDS011;11075;47.944;11.776;2023-02-01T00:59:20;2.07;;;1.43;;
21825;SDS011;11075;47.944;11.776;2023-02-01T01:01:47;1.87;;;1.40;;
21825;SDS011;11075;47.944;11.776;2023-02-01T01:04:13;2.43;;;1.50;;
21825;SDS011;11075;47.944;11.776;2023-02-01T01:06:40;1.77;;;1.57;;
21825;SDS011;11075;47.944;11.776;2023-02-01T01:09:07;1.87;;;1.50;;
21825;SDS011;11075;47.944;11.776;2023-02-01T01:11:36;3.80;;;1.63;;
21825;SDS011;11075;47.944;11.776;2023-02-01T01:14:05;1.97;;;1.30;;
21825;SDS011;11075;47.944;11.776;2023-02-01T01:16:34;1.30;;;1.17;;
21825;SDS011;11075;47.944;11.776;2023-02-01T01:19:01;4.87;;;1.83;;
21825;SDS011;11075;47.944;11.776;2023-02-01T01:21:28;3.20;;;1.70;;
21825;SDS011;11075;47.944;11.776;2023-02-01T01:23:57;1.77;;;1.23;;
21825;SDS011;11075;47.944;11.776;2023-02-01T01:26:24;2.93;;;1.50;;
21825;SDS011;11075;47.944;11.776;2023-02-01T01:28:55;4.47;;;1.93;;
21825;SDS011;11075;47.944;11.776;2023-02-01T01:31:23;1.90;;;1.40;;
21825;SDS011;11075;47.944;11.776;2023-02-01T01:33:51;2.60;;;1.70;;
21825;SDS011;11075;47.944;11.776;2023-02-01T01:36:20;2.10;;;1.60;;
21825;SDS011;11075;47.944;11.776;2023-02-01T01:38:48;2.67;;;1.83;;
21825;SDS011;11075;47.944;11.776;2023-02-01T01:41:17;4.53;;;1.50;;
21825;SDS011;11075;47.944;11.776;2023-02-01T01:43:48;4.00;;;1.50;;
21825;SDS011;11075;47.944;11.776;2023-02-01T01:46:29;1.87;;;1.30;;
21825;SDS011;11075;47.944;11.776;2023-02-01T01:51:31;3.63;;;2.30;;
21825;SDS011;11075;47.944;11.776;2023-02-01T01:54:10;2.30;;;1.70;;
21825;SDS011;11075;47.944;11.776;2023-02-01T01:56:43;2.70;;;2.07;;
21825;SDS011;11075;47.944;11.776;2023-02-01T01:59:16;3.60;;;2.23;;
21825;SDS011;11075;47.944;11.776;2023-02-01T02:01:44;3.97;;;1.50;;
21825;SDS011;11075;47.944;11.776;2023-02-01T02:04:11;6.17;;;2.23;;
21825;SDS011;11075;47.944;11.776;2023-02-01T02:06:43;3.93;;;1.90;;
21825;SDS011;11075;47.944;11.776;2023-02-01T02:09:17;3.60;;;2.00;;
21825;SDS011;11075;47.944;11.776;2023-02-01T02:11:44;3.43;;;2.00;;
21825;SDS011;11075;47.944;11.776;2023-02-01T02:14:11;3.93;;;2.27;;
21825;SDS011;11075;47.944;11.776;2023-02-01T02:30:36;3.63;;;1.97;;
21825;SDS011;11075;47.944;11.776;2023-02-01T02:39:17;2.47;;;1.80;;
21825;SDS011;11075;47.944;11.776;2023-02-01T02:41:54;2.23;;;1.50;;
21825;SDS011;11075;47.944;11.776;2023-02-01T02:50:16;4.10;;;2.60;;
21825;SDS011;11075;47.944;11.776;2023-02-01T02:56:04;3.47;;;2.00;;
21825;SDS011;11075;47.944;11.776;2023-02-01T02:58:52;5.70;;;2.73;;
21825;SDS011;11075;47.944;11.776;2023-02-01T03:01:39;3.50;;;2.23;;
21825;SDS011;11075;47.944;11.776;2023-02-01T03:04:26;3.83;;;2.23;;
21825;SDS011;11075;47.944;11.776;2023-02-01T03:06:53;5.30;;;2.70;;
21825;SDS011;11075;47.944;11.776;2023-02-01T03:11:59;3.83;;;2.53;;
21825;SDS011;11075;47.944;11.776;2023-02-01T03:14:50;5.77;;;2.70;;
21825;SDS011;11075;47.944;11.776;2023-02-01T03:17:22;3.17;;;2.43;;
21825;SDS011;11075;47.944;11.776;2023-02-01T03:19:57;3.27;;;2.77;;
21825;SDS011;11075;47.944;11.776;2023-02-01T03:22:28;3.67;;;2.47;;
21825;SDS011;11075;47.944;11.776;2023-02-01T03:25:21;3.27;;;2.20;;
21825;SDS011;11075;47.944;11.776;2023-02-01T03:27:53;3.60;;;2.37;;
21825;SDS011;11075;47.944;11.776;2023-02-01T03:30:40;6.07;;;3.33;;
21825;SDS011;11075;47.944;11.776;2023-02-01T03:33:12;7.70;;;2.40;;
21825;SDS011;11075;47.944;11.776;2023-02-01T03:41:15;3.93;;;2.53;;
21825;SDS011;11075;47.944;11.776;2023-02-01T03:43:55;4.70;;;2.90;;
21825;SDS011;11075;47.944;11.776;2023-02-01T03:46:46;3.37;;;2.43;;
21825;SDS011;11075;47.944;11.776;2023-02-01T03:52:02;5.27;;;3.00;;
21825;SDS011;11075;47.944;11.776;2023-02-01T03:54:31;5.13;;;2.87;;
21825;SDS011;11075;47.944;11.776;2023-02-01T03:57:01;5.97;;;2.87;;
21825;SDS011;11075;47.944;11.776;2023-02-01T03:59:34;7.50;;;3.20;;
21825;SDS011;11075;47.944;11.776;2023-02-01T04:02:07;5.07;;;2.90;;
21825;SDS011;11075;47.944;11.776;2023-02-01T04:04:35;4.90;;;3.30;;
21825;SDS011;11075;47.944;11.776;2023-02-01T04:07:04;5.83;;;2.83;;
21825;SDS011;11075;47.944;11.776;2023-02-01T04:09:31;4.73;;;3.33;;
21825;SDS011;11075;47.944;11.776;2023-02-01T04:11:59;8.33;;;3.10;;
21825;SDS011;11075;47.944;11.776;2023-02-01T04:14:26;3.87;;;2.60;;
21825;SDS011;11075;47.944;11.776;2023-02-01T04:16:53;4.97;;;2.73;;
21825;SDS011;11075;47.944;11.776;2023-02-01T04:19:21;4.90;;;3.33;;
21825;SDS011;11075;47.944;11.776;2023-02-01T04:21:47;7.23;;;3.30;;
21825;SDS011;11075;47.944;11.776;2023-02-01T04:24:14;11.37;;;6.77;;
21825;SDS011;11075;47.944;11.776;2023-02-01T04:26:41;4.37;;;3.13;;
21825;SDS011;11075;47.944;11.776;2023-02-01T04:29:09;5.90;;;3.80;;
21825;SDS011;11075;47.944;11.776;2023-02-01T04:31:36;10.30;;;5.40;;
21825;SDS011;11075;47.944;11.776;2023-02-01T04:34:03;9.07;;;3.73;;
21825;SDS011;11075;47.944;11.776;2023-02-01T04:36:30;4.90;;;3.63;;
21825;SDS011;11075;47.944;11.776;2023-02-01T04:38:57;5.23;;;3.37;;
21825;SDS011;11075;47.944;11.776;2023-02-01T04:41:24;5.37;;;2.90;;
21825;SDS011;11075;47.944;11.776;2023-02-01T04:43:51;5.83;;;3.30;;
21825;SDS011;11075;47.944;11.776;2023-02-01T04:46:19;4.50;;;3.30;;
21825;SDS011;11075;47.944;11.776;2023-02-01T04:48:46;7.40;;;3.10;;
21825;SDS011;11075;47.944;11.776;2023-02-01T04:51:13;4.13;;;2.33;;
21825;SDS011;11075;47.944;11.776;2023-02-01T04:53:41;6.63;;;3.20;;
21825;SDS011;11075;47.944;11.776;2023-02-01T04:56:08;6.27;;;3.97;;
21825;SDS011;11075;47.944;11.776;2023-02-01T04:58:35;3.37;;;2.40;;
21825;SDS011;11075;47.944;11.776;2023-02-01T05:01:03;5.73;;;4.23;;
21825;SDS011;11075;47.944;11.776;2023-02-01T05:03:32;5.67;;;3.13;;
21825;SDS011;11075;47.944;11.776;2023-02-01T05:05:59;6.40;;;3.80;;
21825;SDS011;11075;47.944;11.776;2023-02-01T05:08:27;3.73;;;2.80;;
21825;SDS011;11075;47.944;11.776;2023-02-01T05:10:55;5.07;;;2.87;;
21825;SDS011;11075;47.944;11.776;2023-02-01T05:13:22;4.53;;;3.00;;
21825;SDS011;11075;47.944;11.776;2023-02-01T05:16:07;5.87;;;3.00;;
21825;SDS011;11075;47.944;11.776;2023-02-01T05:18:34;3.73;;;2.57;;
21825;SDS011;11075;47.944;11.776;2023-02-01T05:21:01;3.47;;;2.33;;
21825;SDS011;11075;47.944;11.776;2023-02-01T05:23:28;5.43;;;3.27;;
21825;SDS011;11075;47.944;11.776;2023-02-01T05:25:58;6.70;;;3.63;;
21825;SDS011;11075;47.944;11.776;2023-02-01T05:28:27;5.17;;;3.07;;
21825;SDS011;11075;47.944;11.776;2023-02-01T05:30:54;5.47;;;3.60;;
21825;SDS011;11075;47.944;11.776;2023-02-01T05:33:21;4.77;;;3.00;;
21825;SDS011;11075;47.944;11.776;2023-02-01T05:35:48;5.77;;;2.50;;
21825;SDS011;11075;47.944;11.776;2023-02-01T05:38:17;4.57;;;2.87;;
21825;SDS011;11075;47.944;11.776;2023-02-01T05:40:44;3.80;;;2.90;;
21825;SDS011;11075;47.944;11.776;2023-02-01T05:43:16;3.93;;;2.80;;
21825;SDS011;11075;47.944;11.776;2023-02-01T05:45:42;4.93;;;3.20;;
21825;SDS011;11075;47.944;11.776;2023-02-01T05:48:09;4.57;;;3.00;;
21825;SDS011;11075;47.944;11.776;2023-02-01T05:50:36;5.30;;;2.63;;
21825;SDS011;11075;47.944;11.776;2023-02-01T05:53:07;4.87;;;3.47;;
21825;SDS011;11075;47.944;11.776;2023-02-01T05:55:34;2.60;;;1.87;;
21825;SDS011;11075;47.944;11.776;2023-02-01T05:58:02;4.43;;;3.40;;
21825;SDS011;11075;47.944;11.776;2023-02-01T06:00:29;4.30;;;2.80;;
21825;SDS011;11075;47.944;11.776;2023-02-01T06:02:56;5.13;;;3.20;;
21825;SDS011;11075;47.944;11.776;2023-02-01T06:05:23;4.87;;;2.90;;
21825;SDS011;11075;47.944;11.776;2023-02-01T06:07:52;4.87;;;3.13;;
21825;SDS011;11075;47.944;11.776;2023-02-01T06:10:19;6.03;;;3.23;;
21825;SDS011;11075;47.944;11.776;2023-02-01T06:12:46;4.57;;;2.33;;
21825;SDS011;11075;47.944;11.776;2023-02-01T06:15:13;4.60;;;2.70;;
21825;SDS011;11075;47.944;11.776;2023-02-01T06:17:45;4.27;;;2.80;;
21825;SDS011;11075;47.944;11.776;2023-02-01T06:20:13;4.77;;;3.13;;
21825;SDS011;11075;47.944;11.776;2023-02-01T06:22:41;4.50;;;2.80;;
21825;SDS011;11075;47.944;11.776;2023-02-01T06:25:08;4.90;;;2.60;;
21825;SDS011;11075;47.944;11.776;2023-02-01T06:27:36;4.27;;;2.73;;
21825;SDS011;11075;47.944;11.776;2023-02-01T06:30:04;4.47;;;2.97;;
21825;SDS011;11075;47.944;11.776;2023-02-01T06:32:33;4.27;;;2.83;;
21825;SDS011;11075;47.944;11.776;2023-02-01T06:35:00;5.07;;;3.70;;
21825;SDS011;11075;47.944;11.776;2023-02-01T06:37:27;4.97;;;2.93;;
21825;SDS011;11075;47.944;11.776;2023-02-01T06:39:56;4.63;;;3.00;;
21825;SDS011;11075;47.944;11.776;2023-02-01T06:42:23;5.10;;;3.20;;
21825;SDS011;11075;47.944;11.776;2023-02-01T06:44:50;5.53;;;2.70;;
21825;SDS011;11075;47.944;11.776;2023-02-01T06:47:16;6.00;;;2.50;;
21825;SDS011;11075;47.944;11.776;2023-02-01T06:49:43;4.43;;;2.80;;
21825;SDS011;11075;47.944;11.776;2023-02-01T06:52:10;3.60;;;2.30;;
21825;SDS011;11075;47.944;11.776;2023-02-01T06:54:37;6.00;;;2.77;;
21825;SDS011;11075;47.944;11.776;2023-02-01T06:57:04;5.73;;;2.90;;
21825;SDS011;11075;47.944;11.776;2023-02-01T06:59:31;2.17;;;1.40;;
21825;SDS011;11075;47.944;11.776;2023-02-01T07:01:58;7.10;;;3.00;;
21825;SDS011;11075;47.944;11.776;2023-02-01T07:04:25;4.03;;;2.40;;
21825;SDS011;11075;47.944;11.776;2023-02-01T07:06:52;3.40;;;2.57;;
21825;SDS011;11075;47.944;11.776;2023-02-01T07:09:18;3.87;;;2.50;;
21825;SDS011;11075;47.944;11.776;2023-02-01T07:11:45;3.87;;;2.40;;
21825;SDS011;11075;47.944;11.776;2023-02-01T07:14:12;4.17;;;2.67;;
21825;SDS011;11075;47.944;11.776;2023-02-01T07:16:39;4.37;;;2.43;;
21825;SDS011;11075;47.944;11.776;2023-02-01T07:19:06;3.00;;;2.20;;
21825;SDS011;11075;47.944;11.776;2023-02-01T07:21:34;3.83;;;2.57;;
21825;SDS011;11075;47.944;11.776;2023-02-01T07:24:00;4.77;;;3.23;;
21825;SDS011;11075;47.944;11.776;2023-02-01T07:26:27;3.90;;;2.33;;
21825;SDS011;11075;47.944;11.776;2023-02-01T07:28:54;3.37;;;1.93;;
21825;SDS011;11075;47.944;11.776;2023-02-01T07:31:21;4.93;;;2.40;;
21825;SDS011;11075;47.944;11.776;2023-02-01T07:33:48;5.77;;;2.37;;
21825;SDS011;11075;47.944;11.776;2023-02-01T07:36:19;6.53;;;2.83;;
21825;SDS011;11075;47.944;11.776;2023-02-01T07:38:46;3.30;;;1.90;;
21825;SDS011;11075;47.944;11.776;2023-02-01T07:41:13;3.03;;;1.70;;
21825;SDS011;11075;47.944;11.776;2023-02-01T07:43:41;5.80;;;3.10;;
21825;SDS011;11075;47.944;11.776;2023-02-01T07:46:09;6.77;;;2.60;;
21825;SDS011;11075;47.944;11.776;2023-02-01T07:48:37;4.20;;;2.60;;
21825;SDS011;11075;47.944;11.776;2023-02-01T07:51:05;4.03;;;2.20;;
21825;SDS011;11075;47.944;11.776;2023-02-01T07:53:34;3.97;;;2.27;;
21825;SDS011;11075;47.944;11.776;2023-02-01T07:56:02;5.13;;;2.60;;
21825;SDS011;11075;47.944;11.776;2023-02-01T07:58:31;3.73;;;2.37;;
21825;SDS011;11075;47.944;11.776;2023-02-01T08:00:57;4.93;;;2.30;;
21825;SDS011;11075;47.944;11.776;2023-02-01T08:03:43;3.23;;;2.57;;
21825;SDS011;11075;47.944;11.776;2023-02-01T08:06:10;2.10;;;1.60;;
21825;SDS011;11075;47.944;11.776;2023-02-01T08:08:37;2.83;;;1.57;;
21825;SDS011;11075;47.944;11.776;2023-02-01T08:11:05;4.73;;;2.60;;
21825;SDS011;11075;47.944;11.776;2023-02-01T08:13:33;4.23;;;2.10;;
21825;SDS011;11075;47.944;11.776;2023-02-01T08:16:03;2.97;;;2.27;;
21825;SDS011;11075;47.944;11.776;2023-02-01T08:18:31;4.03;;;2.47;;
21825;SDS011;11075;47.944;11.776;2023-02-01T08:21:03;5.57;;;2.23;;
21825;SDS011;11075;47.944;11.776;2023-02-01T08:23:35;4.10;;;2.50;;
21825;SDS011;11075;47.944;11.776;2023-02-01T08:26:11;5.07;;;2.00;;
21825;SDS011;11075;47.944;11.776;2023-02-01T08:28:42;3.53;;;2.20;;
21825;SDS011;11075;47.944;11.776;2023-02-01T08:31:11;2.80;;;1.33;;
21825;SDS011;11075;47.944;11.776;2023-02-01T08:33:43;4.40;;;2.10;;
21825;SDS011;11075;47.944;11.776;2023-02-01T08:36:13;2.60;;;1.83;;
21825;SDS011;11075;47.944;11.776;2023-02-01T08:38:40;3.40;;;2.23;;
21825;SDS011;11075;47.944;11.776;2023-02-01T08:41:08;4.43;;;2.40;;
21825;SDS011;11075;47.944;11.776;2023-02-01T08:43:38;4.00;;;2.30;;
21825;SDS011;11075;47.944;11.776;2023-02-01T08:46:05;3.13;;;2.20;;
21825;SDS011;11075;47.944;11.776;2023-02-01T08:48:33;4.60;;;2.10;;
21825;SDS011;11075;47.944;11.776;2023-02-01T08:51:05;1.53;;;1.00;;
21825;SDS011;11075;47.944;11.776;2023-02-01T08:53:34;3.10;;;2.30;;
21825;SDS011;11075;47.944;11.776;2023-02-01T08:56:02;2.60;;;1.63;;
21825;SDS011;11075;47.944;11.776;2023-02-01T08:58:30;3.40;;;2.00;;
21825;SDS011;11075;47.944;11.776;2023-02-01T09:00:57;4.63;;;2.00;;
21825;SDS011;11075;47.944;11.776;2023-02-01T09:03:29;4.03;;;2.10;;
21825;SDS011;11075;47.944;11.776;2023-02-01T09:06:00;3.90;;;2.67;;
21825;SDS011;11075;47.944;11.776;2023-02-01T09:08:32;4.20;;;2.40;;
21825;SDS011;11075;47.944;11.776;2023-02-01T09:11:00;2.80;;;1.70;;
21825;SDS011;11075;47.944;11.776;2023-02-01T09:13:29;3.43;;;1.70;;
21825;SDS011;11075;47.944;11.776;2023-02-01T09:15:55;2.83;;;2.17;;
21825;SDS011;11075;47.944;11.776;2023-02-01T09:18:22;4.07;;;2.77;;
21825;SDS011;11075;47.944;11.776;2023-02-01T09:20:49;5.30;;;2.40;;
21825;SDS011;11075;47.944;11.776;2023-02-01T09:23:16;2.67;;;2.00;;
21825;SDS011;11075;47.944;11.776;2023-02-01T09:25:43;4.50;;;2.60;;
21825;SDS011;11075;47.944;11.776;2023-02-01T09:28:10;3.30;;;2.17;;
21825;SDS011;11075;47.944;11.776;2023-02-01T09:30:37;4.20;;;2.37;;
21825;SDS011;11075;47.944;11.776;2023-02-01T09:33:04;5.80;;;2.20;;
21825;SDS011;11075;47.944;11.776;2023-02-01T09:35:31;4.67;;;2.07;;
21825;SDS011;11075;47.944;11.776;2023-02-01T09:37:58;4.00;;;2.20;;
21825;SDS011;11075;47.944;11.776;2023-02-01T09:40:25;2.90;;;1.83;;
21825;SDS011;11075;47.944;11.776;2023-02-01T09:42:59;2.17;;;1.60;;
21825;SDS011;11075;47.944;11.776;2023-02-01T09:48:14;4.57;;;1.90;;
21825;SDS011;11075;47.944;11.776;2023-02-01T09:50:45;2.90;;;1.90;;
21825;SDS011;11075;47.944;11.776;2023-02-01T09:53:19;2.23;;;1.87;;
21825;SDS011;11075;47.944;11.776;2023-02-01T09:55:53;1.53;;;1.10;;
21825;SDS011;11075;47.944;11.776;2023-02-01T10:01:03;2.30;;;1.77;;
21825;SDS011;11075;47.944;11.776;2023-02-01T10:03:33;1.97;;;1.60;;
21825;SDS011;11075;47.944;11.776;2023-02-01T10:06:18;2.67;;;1.70;;
21825;SDS011;11075;47.944;11.776;2023-02-01T10:25:55;2.53;;;1.70;;
21825;SDS011;11075;47.944;11.776;2023-02-01T10:28:36;2.93;;;1.90;;
21825;SDS011;11075;47.944;11.776;2023-02-01T10:31:05;2.47;;;1.50;;
21825;SDS011;11075;47.944;11.776;2023-02-01T10:33:42;2.83;;;1.47;;
21825;SDS011;11075;47.944;11.776;2023-02-01T10:36:16;2.30;;;1.50;;
21825;SDS011;11075;47.944;11.776;2023-02-01T10:38:47;2.07;;;1.07;;
21825;SDS011;11075;47.944;11.776;2023-02-01T10:41:19;1.80;;;1.57;;
21825;SDS011;11075;47.944;11.776;2023-02-01T10:43:54;2.90;;;1.50;;
21825;SDS011;11075;47.944;11.776;2023-02-01T10:46:23;4.63;;;1.67;;
21825;SDS011;11075;47.944;11.776;2023-02-01T10:48:52;2.03;;;1.50;;
21825;SDS011;11075;47.944;11.776;2023-02-01T10:51:29;2.73;;;1.83;;
21825;SDS011;11075;47.944;11.776;2023-02-01T10:54:10;2.50;;;1.70;;
21825;SDS011;11075;47.944;11.776;2023-02-01T10:56:43;1.60;;;1.23;;
21825;SDS011;11075;47.944;11.776;2023-02-01T10:59:15;2.33;;;1.87;;
21825;SDS011;11075;47.944;11.776;2023-02-01T11:01:45;4.33;;;2.00;;
21825;SDS011;11075;47.944;11.776;2023-02-01T11:04:14;2.40;;;1.63;;
21825;SDS011;11075;47.944;11.776;2023-02-01T11:06:47;2.40;;;1.70;;
21825;SDS011;11075;47.944;11.776;2023-02-01T11:09:21;1.53;;;1.40;;
21825;SDS011;11075;47.944;11.776;2023-02-01T11:14:18;1.93;;;1.43;;
21825;SDS011;11075;47.944;11.776;2023-02-01T11:16:53;2.17;;;1.40;;
21825;SDS011;11075;47.944;11.776;2023-02-01T11:19:21;2.10;;;1.50;;
21825;SDS011;11075;47.944;11.776;2023-02-01T11:21:49;1.30;;;1.20;;
21825;SDS011;11075;47.944;11.776;2023-02-01T11:24:31;1.93;;;1.40;;
21825;SDS011;11075;47.944;11.776;2023-02-01T11:27:03;2.10;;;1.50;;
21825;SDS011;11075;47.944;11.776;2023-02-01T11:29:36;2.20;;;1.77;;
21825;SDS011;11075;47.944;11.776;2023-02-01T11:32:07;1.83;;;1.30;;
21825;SDS011;11075;47.944;11.776;2023-02-01T11:34:37;4.93;;;1.63;;
21825;SDS011;11075;47.944;11.776;2023-02-01T11:37:14;2.37;;;1.60;;
21825;SDS011;11075;47.944;11.776;2023-02-01T11:39:57;3.30;;;1.73;;
21825;SDS011;11075;47.944;11.776;2023-02-01T11:42:26;2.27;;;1.50;;
21825;SDS011;11075;47.944;11.776;2023-02-01T11:47:45;2.43;;;1.77;;
21825;SDS011;11075;47.944;11.776;2023-02-01T11:50:17;3.67;;;1.60;;
21825;SDS011;11075;47.944;11.776;2023-02-01T11:53:03;2.10;;;1.47;;
21825;SDS011;11075;47.944;11.776;2023-02-01T12:01:15;2.67;;;1.40;;
21825;SDS011;11075;47.944;11.776;2023-02-01T12:09:30;4.90;;;1.73;;
21825;SDS011;11075;47.944;11.776;2023-02-01T12:12:36;2.07;;;1.50;;
21825;SDS011;11075;47.944;11.776;2023-02-01T12:18:35;8.63;;;1.50;;
21825;SDS011;11075;47.944;11.776;2023-02-01T12:39:17;5.50;;;1.80;;
21825;SDS011;11075;47.944;11.776;2023-02-01T12:44:24;4.97;;;1.83;;
21825;SDS011;11075;47.944;11.776;2023-02-01T12:47:31;4.87;;;1.73;;
21825;SDS011;11075;47.944;11.776;2023-02-01T12:52:49;2.70;;;1.53;;
21825;SDS011;11075;47.944;11.776;2023-02-01T12:55:22;6.60;;;1.90;;
21825;SDS011;11075;47.944;11.776;2023-02-01T12:58:13;7.63;;;1.70;;
21825;SDS011;11075;47.944;11.776;2023-02-01T13:00:51;2.20;;;1.43;;
21825;SDS011;11075;47.944;11.776;2023-02-01T13:08:45;3.33;;;1.77;;
21825;SDS011;11075;47.944;11.776;2023-02-01T13:16:39;5.50;;;1.73;;
21825;SDS011;11075;47.944;11.776;2023-02-01T13:19:21;3.77;;;1.67;;
21825;SDS011;11075;47.944;11.776;2023-02-01T13:22:10;2.47;;;1.50;;
21825;SDS011;11075;47.944;11.776;2023-02-01T13:27:16;4.27;;;1.77;;
21825;SDS011;11075;47.944;11.776;2023-02-01T13:30:04;3.00;;;1.33;;
21825;SDS011;11075;47.944;11.776;2023-02-01T13:32:43;2.20;;;1.20;;
21825;SDS011;11075;47.944;11.776;2023-02-01T13:41:54;1.37;;;1.20;;
21825;SDS011;11075;47.944;11.776;2023-02-01T13:44:28;2.23;;;1.30;;
21825;SDS011;11075;47.944;11.776;2023-02-01T13:47:01;2.77;;;1.60;;
21825;SDS011;11075;47.944;11.776;2023-02-01T13:49:37;3.03;;;1.60;;
21825;SDS011;11075;47.944;11.776;2023-02-01T13:52:06;1.70;;;1.10;;
21825;SDS011;11075;47.944;11.776;2023-02-01T13:54:47;2.13;;;1.33;;
21825;SDS011;11075;47.944;11.776;2023-02-01T13:57:30;2.90;;;1.50;;
21825;SDS011;11075;47.944;11.776;2023-02-01T14:00:08;1.83;;;1.23;;
21825;SDS011;11075;47.944;11.776;2023-02-01T14:03:22;2.47;;;1.00;;
21825;SDS011;11075;47.944;11.776;2023-02-01T14:06:33;2.40;;;1.17;;
21825;SDS011;11075;47.944;11.776;2023-02-01T14:09:18;2.60;;;1.50;;
21825;SDS011;11075;47.944;11.776;2023-02-01T14:12:39;2.00;;;1.27;;
21825;SDS011;11075;47.944;11.776;2023-02-01T14:15:18;1.57;;;1.23;;
21825;SDS011;11075;47.944;11.776;2023-02-01T14:17:50;2.63;;;2.27;;
21825;SDS011;11075;47.944;11.776;2023-02-01T14:23:03;2.90;;;1.83;;
21825;SDS011;11075;47.944;11.776;2023-02-01T14:25:34;6.37;;;1.37;;
21825;SDS011;11075;47.944;11.776;2023-02-01T14:28:01;4.80;;;1.80;;
21825;SDS011;11075;47.944;11.776;2023-02-01T14:30:36;2.37;;;1.63;;
21825;SDS011;11075;47.944;11.776;2023-02-01T14:33:20;4.20;;;1.77;;
21825;SDS011;11075;47.944;11.776;2023-02-01T14:36:01;1.80;;;1.30;;
21825;SDS011;11075;47.944;11.776;2023-02-01T14:38:39;2.33;;;1.50;;
21825;SDS011;11075;47.944;11.776;2023-02-01T14:41:30;5.53;;;1.83;;
21825;SDS011;11075;47.944;11.776;2023-02-01T14:49:32;4.13;;;1.90;;
21825;SDS011;11075;47.944;11.776;2023-02-01T14:52:05;1.90;;;1.10;;
21825;SDS011;11075;47.944;11.776;2023-02-01T14:54:39;5.40;;;1.50;;
21825;SDS011;11075;47.944;11.776;2023-02-01T14:57:09;4.10;;;1.63;;
21825;SDS011;11075;47.944;11.776;2023-02-01T14:59:42;3.13;;;1.70;;
21825;SDS011;11075;47.944;11.776;2023-02-01T15:02:17;3.47;;;1.60;;
21825;SDS011;11075;47.944;11.776;2023-02-01T15:04:50;1.90;;;1.20;;
21825;SDS011;11075;47.944;11.776;2023-02-01T15:07:25;4.30;;;1.17;;
21825;SDS011;11075;47.944;11.776;2023-02-01T15:09:55;2.93;;;1.47;;
21825;SDS011;11075;47.944;11.776;2023-02-01T15:12:44;3.87;;;1.40;;
21825;SDS011;11075;47.944;11.776;2023-02-01T15:15:22;5.33;;;1.50;;
21825;SDS011;11075;47.944;11.776;2023-02-01T15:23:01;4.00;;;1.30;;
21825;SDS011;11075;47.944;11.776;2023-02-01T15:25:33;2.53;;;1.50;;
21825;SDS011;11075;47.944;11.776;2023-02-01T15:28:05;2.97;;;1.30;;
21825;SDS011;11075;47.944;11.776;2023-02-01T15:30:39;2.07;;;1.37;;
21825;SDS011;11075;47.944;11.776;2023-02-01T15:33:07;3.33;;;1.80;;
21825;SDS011;11075;47.944;11.776;2023-02-01T15:35:52;2.43;;;1.50;;
21825;SDS011;11075;47.944;11.776;2023-02-01T15:38:33;3.40;;;1.80;;
21825;SDS011;11075;47.944;11.776;2023-02-01T15:41:06;4.97;;;1.73;;
21825;SDS011;11075;47.944;11.776;2023-02-01T15:43:47;3.67;;;1.80;;
21825;SDS011;11075;47.944;11.776;2023-02-01T15:46:21;3.50;;;1.67;;
21825;SDS011;11075;47.944;11.776;2023-02-01T15:48:58;5.97;;;2.33;;
21825;SDS011;11075;47.944;11.776;2023-02-01T15:51:27;2.57;;;1.80;;
21825;SDS011;11075;47.944;11.776;2023-02-01T15:53:56;3.53;;;1.57;;
21825;SDS011;11075;47.944;11.776;2023-02-01T15:56:28;4.33;;;2.00;;
21825;SDS011;11075;47.944;11.776;2023-02-01T15:59:01;5.13;;;1.73;;
21825;SDS011;11075;47.944;11.776;2023-02-01T16:01:34;2.50;;;1.63;;
21825;SDS011;11075;47.944;11.776;2023-02-01T16:04:13;2.47;;;1.63;;
21825;SDS011;11075;47.944;11.776;2023-02-01T16:06:49;2.13;;;1.60;;
21825;SDS011;11075;47.944;11.776;2023-02-01T16:09:18;4.80;;;2.10;;
21825;SDS011;11075;47.944;11.776;2023-02-01T16:11:48;4.73;;;2.07;;
21825;SDS011;11075;47.944;11.776;2023-02-01T16:14:26;7.77;;;2.00;;
21825;SDS011;11075;47.944;11.776;2023-02-01T16:16:54;6.97;;;1.90;;
21825;SDS011;11075;47.944;11.776;2023-02-01T16:19:23;5.73;;;2.20;;
21825;SDS011;11075;47.944;11.776;2023-02-01T16:21:54;3.93;;;2.00;;
21825;SDS011;11075;47.944;11.776;2023-02-01T16:24:22;4.63;;;2.10;;
21825;SDS011;11075;47.944;11.776;2023-02-01T16:26:52;3.63;;;1.70;;
21825;SDS011;11075;47.944;11.776;2023-02-01T16:29:19;3.07;;;2.00;;
21825;SDS011;11075;47.944;11.776;2023-02-01T16:31:47;4.43;;;1.60;;
21825;SDS011;11075;47.944;11.776;2023-02-01T16:34:16;3.60;;;1.87;;
21825;SDS011;11075;47.944;11.776;2023-02-01T16:36:46;4.23;;;1.67;;
21825;SDS011;11075;47.944;11.776;2023-02-01T16:39:19;4.70;;;2.00;;
21825;SDS011;11075;47.944;11.776;2023-02-01T16:41:46;2.73;;;1.17;;
21825;SDS011;11075;47.944;11.776;2023-02-01T16:44:13;5.40;;;1.97;;
21825;SDS011;11075;47.944;11.776;2023-02-01T16:46:41;5.90;;;1.87;;
21825;SDS011;11075;47.944;11.776;2023-02-01T16:49:18;5.93;;;2.17;;
21825;SDS011;11075;47.944;11.776;2023-02-01T16:51:48;4.77;;;2.00;;
21825;SDS011;11075;47.944;11.776;2023-02-01T16:54:18;6.50;;;1.70;;
21825;SDS011;11075;47.944;11.776;2023-02-01T16:56:46;2.67;;;1.30;;
21825;SDS011;11075;47.944;11.776;2023-02-01T16:59:14;4.37;;;1.57;;
21825;SDS011;11075;47.944;11.776;2023-02-01T17:01:41;8.83;;;1.97;;
21825;SDS011;11075;47.944;11.776;2023-02-01T17:04:09;3.03;;;1.10;;
21825;SDS011;11075;47.944;11.776;2023-02-01T17:06:36;4.87;;;1.53;;
21825;SDS011;11075;47.944;11.776;2023-02-01T17:09:05;5.37;;;1.60;;
21825;SDS011;11075;47.944;11.776;2023-02-01T17:11:32;5.33;;;1.67;;
21825;SDS011;11075;47.944;11.776;2023-02-01T17:14:13;2.87;;;1.30;;
21825;SDS011;11075;47.944;11.776;2023-02-01T17:16:42;5.37;;;1.67;;
21825;SDS011;11075;47.944;11.776;2023-02-01T17:19:15;2.13;;;1.13;;